메인 페이지
METAR-TAF:

METAR-TAF

공항 :

바도다라, 인도

위도: 22-19-46N, 경도: 73-13-10E, 고도: 39m

현재 날씨관측

예보는 6 시간 25분 전, 16:00시(UTC)에 발표되었습니다.
11kt
온도 33°C
습도 59%
기압 1003 hPa
시정: 6000m

METAR: VABO 281600Z 19011KT 6000 NSC 33/24 Q1003 NOSIG

시각: 03:55 (22:25 UTC)

예보

예보는 2 시간 25분 전, 20:00시(UTC)에 발표되었습니다.
예보 대상 시간: 28일 21시부터 29일 06시까지 (UTC)
남남서10kt
시정: 6000m
전환 중
28일 23시부터 29일 01시까지 (UTC)
고도 2000ft 상공 구름 보통

TAF: VABO 282000Z 2821/2906 20010KT 6000 NSC BECMG 2823/2901 SCT020

4,000개 이상의 공항 관측 자료 및 예보 (METAR 및 TAF 보고).

지도상에서 검색 가능한 기상관측소가 노란 점과 빨간 점으로 표시되어 있습니다.

기상관측소 명을 보려면 표시 위로 마우스를 이동하세요.

날씨 관측과 예보를 보려면 클릭하세요.

지도 변경 : 확대하려면 엑스 표시가 있는 녹색 버튼, 축소하려면 빼기 표시가 있는 녹색 버튼, 다음 페이지의 지도를 보려면 녹색 화살표를 클릭하세요.


METAR-TAF: